sensor_id;sensor_type;location;lat;lon;timestamp;temperature;humidity
21473;DHT22;10898;48.072;11.682;2023-10-31T00:00:52;10.70;96.00
21473;DHT22;10898;48.072;11.682;2023-10-31T00:02:54;10.60;95.30
21473;DHT22;10898;48.072;11.682;2023-10-31T00:04:55;10.60;94.90
21473;DHT22;10898;48.072;11.682;2023-10-31T00:06:57;10.50;94.20
21473;DHT22;10898;48.072;11.682;2023-10-31T00:08:59;10.40;94.30
21473;DHT22;10898;48.072;11.682;2023-10-31T00:11:01;10.40;94.60
21473;DHT22;10898;48.072;11.682;2023-10-31T00:13:03;10.40;94.40
21473;DHT22;10898;48.072;11.682;2023-10-31T00:15:05;10.30;94.40
21473;DHT22;10898;48.072;11.682;2023-10-31T00:17:06;10.20;94.00
21473;DHT22;10898;48.072;11.682;2023-10-31T00:19:08;10.20;94.50
21473;DHT22;10898;48.072;11.682;2023-10-31T00:21:10;10.10;94.80
21473;DHT22;10898;48.072;11.682;2023-10-31T00:23:12;10.10;95.30
21473;DHT22;10898;48.072;11.682;2023-10-31T00:25:14;10.00;94.90
21473;DHT22;10898;48.072;11.682;2023-10-31T00:27:15;10.00;95.10
21473;DHT22;10898;48.072;11.682;2023-10-31T00:29:17;10.00;94.90
21473;DHT22;10898;48.072;11.682;2023-10-31T00:31:19;10.00;95.10
21473;DHT22;10898;48.072;11.682;2023-10-31T00:33:22;10.00;94.80
21473;DHT22;10898;48.072;11.682;2023-10-31T00:35:24;10.00;94.90
21473;DHT22;10898;48.072;11.682;2023-10-31T00:37:25;10.00;94.30
21473;DHT22;10898;48.072;11.682;2023-10-31T00:39:27;10.00;94.90
21473;DHT22;10898;48.072;11.682;2023-10-31T00:41:29;10.00;94.90
21473;DHT22;10898;48.072;11.682;2023-10-31T00:43:31;10.00;95.40
21473;DHT22;10898;48.072;11.682;2023-10-31T00:45:33;10.00;95.60
21473;DHT22;10898;48.072;11.682;2023-10-31T00:47:35;10.00;95.20
21473;DHT22;10898;48.072;11.682;2023-10-31T00:49:37;10.00;95.30
21473;DHT22;10898;48.072;11.682;2023-10-31T00:51:39;10.00;95.30
21473;DHT22;10898;48.072;11.682;2023-10-31T00:53:41;10.00;95.00
21473;DHT22;10898;48.072;11.682;2023-10-31T00:55:43;10.00;95.20
21473;DHT22;10898;48.072;11.682;2023-10-31T00:57:46;9.90;94.80
21473;DHT22;10898;48.072;11.682;2023-10-31T00:59:47;9.90;94.90
21473;DHT22;10898;48.072;11.682;2023-10-31T01:01:49;9.90;95.10
21473;DHT22;10898;48.072;11.682;2023-10-31T01:03:51;9.80;95.30
21473;DHT22;10898;48.072;11.682;2023-10-31T01:05:53;9.90;95.50
21473;DHT22;10898;48.072;11.682;2023-10-31T01:07:55;9.80;95.20
21473;DHT22;10898;48.072;11.682;2023-10-31T01:09:57;9.80;95.40
21473;DHT22;10898;48.072;11.682;2023-10-31T01:11:59;9.80;95.60
21473;DHT22;10898;48.072;11.682;2023-10-31T01:14:00;9.80;95.80
21473;DHT22;10898;48.072;11.682;2023-10-31T01:16:03;9.80;95.70
21473;DHT22;10898;48.072;11.682;2023-10-31T01:18:05;9.80;95.80
21473;DHT22;10898;48.072;11.682;2023-10-31T01:20:08;9.80;95.90
21473;DHT22;10898;48.072;11.682;2023-10-31T01:22:11;9.80;95.90
21473;DHT22;10898;48.072;11.682;2023-10-31T01:24:13;9.80;96.00
21473;DHT22;10898;48.072;11.682;2023-10-31T01:26:15;9.80;96.10
21473;DHT22;10898;48.072;11.682;2023-10-31T01:28:17;9.80;95.90
21473;DHT22;10898;48.072;11.682;2023-10-31T01:30:18;9.80;95.50
21473;DHT22;10898;48.072;11.682;2023-10-31T01:32:20;9.80;95.70
21473;DHT22;10898;48.072;11.682;2023-10-31T01:34:23;9.80;95.70
21473;DHT22;10898;48.072;11.682;2023-10-31T01:36:25;9.80;95.40
21473;DHT22;10898;48.072;11.682;2023-10-31T01:38:30;9.80;95.50
21473;DHT22;10898;48.072;11.682;2023-10-31T01:40:32;9.80;95.40
21473;DHT22;10898;48.072;11.682;2023-10-31T01:42:33;9.80;95.40
21473;DHT22;10898;48.072;11.682;2023-10-31T01:44:35;9.80;95.30
21473;DHT22;10898;48.072;11.682;2023-10-31T01:46:37;9.80;94.80
21473;DHT22;10898;48.072;11.682;2023-10-31T01:48:39;9.80;94.70
21473;DHT22;10898;48.072;11.682;2023-10-31T01:50:41;9.70;95.00
21473;DHT22;10898;48.072;11.682;2023-10-31T01:52:43;9.70;95.30
21473;DHT22;10898;48.072;11.682;2023-10-31T01:54:45;9.70;95.30
21473;DHT22;10898;48.072;11.682;2023-10-31T01:56:47;9.70;95.30
21473;DHT22;10898;48.072;11.682;2023-10-31T01:58:53;9.70;94.90
21473;DHT22;10898;48.072;11.682;2023-10-31T02:00:55;9.70;95.30
21473;DHT22;10898;48.072;11.682;2023-10-31T02:02:57;9.70;95.10
21473;DHT22;10898;48.072;11.682;2023-10-31T02:05:00;9.70;94.70
21473;DHT22;10898;48.072;11.682;2023-10-31T02:07:02;9.70;94.70
21473;DHT22;10898;48.072;11.682;2023-10-31T02:09:04;9.70;95.00
21473;DHT22;10898;48.072;11.682;2023-10-31T02:11:06;9.70;94.40
21473;DHT22;10898;48.072;11.682;2023-10-31T02:13:18;9.60;94.50
21473;DHT22;10898;48.072;11.682;2023-10-31T02:15:20;9.60;94.00
21473;DHT22;10898;48.072;11.682;2023-10-31T02:17:22;9.60;94.10
21473;DHT22;10898;48.072;11.682;2023-10-31T02:19:24;9.60;94.50
21473;DHT22;10898;48.072;11.682;2023-10-31T02:21:27;9.50;94.20
21473;DHT22;10898;48.072;11.682;2023-10-31T02:23:30;9.50;94.40
21473;DHT22;10898;48.072;11.682;2023-10-31T02:25:32;9.50;94.60
21473;DHT22;10898;48.072;11.682;2023-10-31T02:27:34;9.50;94.00
21473;DHT22;10898;48.072;11.682;2023-10-31T02:29:36;9.50;94.20
21473;DHT22;10898;48.072;11.682;2023-10-31T02:31:38;9.50;94.00
21473;DHT22;10898;48.072;11.682;2023-10-31T02:33:40;9.50;93.90
21473;DHT22;10898;48.072;11.682;2023-10-31T02:35:42;9.40;94.40
21473;DHT22;10898;48.072;11.682;2023-10-31T02:37:44;9.40;94.70
21473;DHT22;10898;48.072;11.682;2023-10-31T02:39:46;9.40;94.60
21473;DHT22;10898;48.072;11.682;2023-10-31T02:41:48;9.40;94.80
21473;DHT22;10898;48.072;11.682;2023-10-31T02:43:50;9.40;95.10
21473;DHT22;10898;48.072;11.682;2023-10-31T02:45:52;9.40;95.20
21473;DHT22;10898;48.072;11.682;2023-10-31T02:47:54;9.30;95.50
21473;DHT22;10898;48.072;11.682;2023-10-31T02:49:56;9.30;95.70
21473;DHT22;10898;48.072;11.682;2023-10-31T02:51:58;9.30;95.70
21473;DHT22;10898;48.072;11.682;2023-10-31T02:54:00;9.30;95.20
21473;DHT22;10898;48.072;11.682;2023-10-31T02:56:02;9.30;95.50
21473;DHT22;10898;48.072;11.682;2023-10-31T02:58:04;9.20;95.60
21473;DHT22;10898;48.072;11.682;2023-10-31T03:00:06;9.20;95.60
21473;DHT22;10898;48.072;11.682;2023-10-31T03:02:08;9.20;95.70
21473;DHT22;10898;48.072;11.682;2023-10-31T03:04:10;9.20;95.90
21473;DHT22;10898;48.072;11.682;2023-10-31T03:06:12;9.20;95.50
21473;DHT22;10898;48.072;11.682;2023-10-31T03:08:13;9.30;95.80
21473;DHT22;10898;48.072;11.682;2023-10-31T03:10:16;9.30;95.90
21473;DHT22;10898;48.072;11.682;2023-10-31T03:12:17;9.40;95.80
21473;DHT22;10898;48.072;11.682;2023-10-31T03:14:19;9.40;95.50
21473;DHT22;10898;48.072;11.682;2023-10-31T03:16:21;9.40;95.40
21473;DHT22;10898;48.072;11.682;2023-10-31T03:18:23;9.40;95.20
21473;DHT22;10898;48.072;11.682;2023-10-31T03:20:25;9.40;95.30
21473;DHT22;10898;48.072;11.682;2023-10-31T03:22:27;9.40;95.20
21473;DHT22;10898;48.072;11.682;2023-10-31T03:24:29;9.40;95.20
21473;DHT22;10898;48.072;11.682;2023-10-31T03:26:31;9.40;94.80
21473;DHT22;10898;48.072;11.682;2023-10-31T03:28:32;9.30;95.50
21473;DHT22;10898;48.072;11.682;2023-10-31T03:30:34;9.30;95.40
21473;DHT22;10898;48.072;11.682;2023-10-31T03:32:36;9.30;94.70
21473;DHT22;10898;48.072;11.682;2023-10-31T03:34:38;9.30;95.30
21473;DHT22;10898;48.072;11.682;2023-10-31T03:36:40;9.20;95.10
21473;DHT22;10898;48.072;11.682;2023-10-31T03:38:41;9.30;94.30
21473;DHT22;10898;48.072;11.682;2023-10-31T03:40:43;9.30;94.50
21473;DHT22;10898;48.072;11.682;2023-10-31T03:42:45;9.30;94.90
21473;DHT22;10898;48.072;11.682;2023-10-31T03:44:47;9.30;95.40
21473;DHT22;10898;48.072;11.682;2023-10-31T03:46:49;9.30;95.20
21473;DHT22;10898;48.072;11.682;2023-10-31T03:48:50;9.30;94.90
21473;DHT22;10898;48.072;11.682;2023-10-31T03:50:52;9.30;95.00
21473;DHT22;10898;48.072;11.682;2023-10-31T03:52:54;9.40;94.80
21473;DHT22;10898;48.072;11.682;2023-10-31T03:54:56;9.40;94.50
21473;DHT22;10898;48.072;11.682;2023-10-31T03:56:58;9.40;94.90
21473;DHT22;10898;48.072;11.682;2023-10-31T03:59:00;9.40;95.20
21473;DHT22;10898;48.072;11.682;2023-10-31T04:01:02;9.40;94.90
21473;DHT22;10898;48.072;11.682;2023-10-31T04:03:04;9.40;94.80
21473;DHT22;10898;48.072;11.682;2023-10-31T04:05:06;9.40;93.80
21473;DHT22;10898;48.072;11.682;2023-10-31T04:07:08;9.30;93.00
21473;DHT22;10898;48.072;11.682;2023-10-31T04:09:10;9.30;93.30
21473;DHT22;10898;48.072;11.682;2023-10-31T04:11:13;9.30;93.10
21473;DHT22;10898;48.072;11.682;2023-10-31T04:13:14;9.30;93.00
21473;DHT22;10898;48.072;11.682;2023-10-31T04:15:16;9.20;93.50
21473;DHT22;10898;48.072;11.682;2023-10-31T04:17:18;9.20;93.20
21473;DHT22;10898;48.072;11.682;2023-10-31T04:19:20;9.20;93.20
21473;DHT22;10898;48.072;11.682;2023-10-31T04:21:22;9.20;93.60
21473;DHT22;10898;48.072;11.682;2023-10-31T04:23:23;9.20;92.70
21473;DHT22;10898;48.072;11.682;2023-10-31T04:25:25;9.20;92.50
21473;DHT22;10898;48.072;11.682;2023-10-31T04:27:28;9.20;92.30
21473;DHT22;10898;48.072;11.682;2023-10-31T04:29:30;9.20;92.20
21473;DHT22;10898;48.072;11.682;2023-10-31T04:31:32;9.20;91.70
21473;DHT22;10898;48.072;11.682;2023-10-31T04:33:44;9.20;91.50
21473;DHT22;10898;48.072;11.682;2023-10-31T04:35:46;9.20;91.70
21473;DHT22;10898;48.072;11.682;2023-10-31T04:37:48;9.20;92.30
21473;DHT22;10898;48.072;11.682;2023-10-31T04:39:50;9.20;91.90
21473;DHT22;10898;48.072;11.682;2023-10-31T04:41:52;9.20;92.10
21473;DHT22;10898;48.072;11.682;2023-10-31T04:43:54;9.20;92.70
21473;DHT22;10898;48.072;11.682;2023-10-31T04:45:55;9.20;92.30
21473;DHT22;10898;48.072;11.682;2023-10-31T04:47:57;9.20;92.50
21473;DHT22;10898;48.072;11.682;2023-10-31T04:49:59;9.20;91.90
21473;DHT22;10898;48.072;11.682;2023-10-31T04:52:01;9.20;91.70
21473;DHT22;10898;48.072;11.682;2023-10-31T04:54:03;9.20;92.00
21473;DHT22;10898;48.072;11.682;2023-10-31T04:56:12;9.20;91.80
21473;DHT22;10898;48.072;11.682;2023-10-31T04:58:15;9.20;92.70
21473;DHT22;10898;48.072;11.682;2023-10-31T05:00:17;9.20;92.70
21473;DHT22;10898;48.072;11.682;2023-10-31T05:02:21;9.20;92.70
21473;DHT22;10898;48.072;11.682;2023-10-31T05:04:24;9.10;93.20
21473;DHT22;10898;48.072;11.682;2023-10-31T05:06:26;9.10;93.00
21473;DHT22;10898;48.072;11.682;2023-10-31T05:08:28;9.10;93.10
21473;DHT22;10898;48.072;11.682;2023-10-31T05:10:30;9.20;93.20
21473;DHT22;10898;48.072;11.682;2023-10-31T05:12:32;9.20;93.00
21473;DHT22;10898;48.072;11.682;2023-10-31T05:14:34;9.20;93.10
21473;DHT22;10898;48.072;11.682;2023-10-31T05:16:39;9.10;93.10
21473;DHT22;10898;48.072;11.682;2023-10-31T05:18:42;9.10;93.20
21473;DHT22;10898;48.072;11.682;2023-10-31T05:20:44;9.10;92.90
21473;DHT22;10898;48.072;11.682;2023-10-31T05:22:46;9.10;93.30
21473;DHT22;10898;48.072;11.682;2023-10-31T05:24:48;9.20;93.50
21473;DHT22;10898;48.072;11.682;2023-10-31T05:26:49;9.20;93.60
21473;DHT22;10898;48.072;11.682;2023-10-31T05:28:51;9.20;92.90
21473;DHT22;10898;48.072;11.682;2023-10-31T05:30:53;9.20;93.20
21473;DHT22;10898;48.072;11.682;2023-10-31T05:32:55;9.20;93.40
21473;DHT22;10898;48.072;11.682;2023-10-31T05:34:57;9.20;93.50
21473;DHT22;10898;48.072;11.682;2023-10-31T05:37:01;9.20;93.50
21473;DHT22;10898;48.072;11.682;2023-10-31T05:39:03;9.20;93.80
21473;DHT22;10898;48.072;11.682;2023-10-31T05:41:07;9.20;93.50
21473;DHT22;10898;48.072;11.682;2023-10-31T05:43:09;9.20;92.80
21473;DHT22;10898;48.072;11.682;2023-10-31T05:45:11;9.10;93.30
21473;DHT22;10898;48.072;11.682;2023-10-31T05:47:13;9.10;93.40
21473;DHT22;10898;48.072;11.682;2023-10-31T05:49:15;9.10;93.90
21473;DHT22;10898;48.072;11.682;2023-10-31T05:51:18;9.20;94.00
21473;DHT22;10898;48.072;11.682;2023-10-31T05:53:20;9.20;93.00
21473;DHT22;10898;48.072;11.682;2023-10-31T05:55:22;9.10;93.40
21473;DHT22;10898;48.072;11.682;2023-10-31T05:57:24;9.10;93.20
21473;DHT22;10898;48.072;11.682;2023-10-31T05:59:26;9.10;92.80
21473;DHT22;10898;48.072;11.682;2023-10-31T06:01:27;9.00;93.00
21473;DHT22;10898;48.072;11.682;2023-10-31T06:03:30;9.00;93.40
21473;DHT22;10898;48.072;11.682;2023-10-31T06:05:32;9.00;93.60
21473;DHT22;10898;48.072;11.682;2023-10-31T06:07:34;9.00;94.00
21473;DHT22;10898;48.072;11.682;2023-10-31T06:09:36;9.00;94.10
21473;DHT22;10898;48.072;11.682;2023-10-31T06:11:41;9.00;94.10
21473;DHT22;10898;48.072;11.682;2023-10-31T06:13:44;9.00;94.30
21473;DHT22;10898;48.072;11.682;2023-10-31T06:15:45;9.00;94.80
21473;DHT22;10898;48.072;11.682;2023-10-31T06:17:47;9.00;95.40
21473;DHT22;10898;48.072;11.682;2023-10-31T06:19:49;9.00;95.00
21473;DHT22;10898;48.072;11.682;2023-10-31T06:21:51;9.00;95.30
21473;DHT22;10898;48.072;11.682;2023-10-31T06:23:53;9.10;95.50
21473;DHT22;10898;48.072;11.682;2023-10-31T06:25:54;9.10;95.80
21473;DHT22;10898;48.072;11.682;2023-10-31T06:27:56;9.10;95.70
21473;DHT22;10898;48.072;11.682;2023-10-31T06:29:58;9.20;95.80
21473;DHT22;10898;48.072;11.682;2023-10-31T06:32:20;9.20;95.90
21473;DHT22;10898;48.072;11.682;2023-10-31T06:34:22;9.20;95.30
21473;DHT22;10898;48.072;11.682;2023-10-31T06:36:23;9.20;95.50
21473;DHT22;10898;48.072;11.682;2023-10-31T06:38:25;9.20;95.70
21473;DHT22;10898;48.072;11.682;2023-10-31T06:40:27;9.20;95.50
21473;DHT22;10898;48.072;11.682;2023-10-31T06:42:30;9.20;95.60
21473;DHT22;10898;48.072;11.682;2023-10-31T06:44:32;9.20;95.40
21473;DHT22;10898;48.072;11.682;2023-10-31T06:46:33;9.20;95.70
21473;DHT22;10898;48.072;11.682;2023-10-31T06:48:35;9.20;95.50
21473;DHT22;10898;48.072;11.682;2023-10-31T06:50:37;9.20;95.90
21473;DHT22;10898;48.072;11.682;2023-10-31T06:52:39;9.20;95.40
21473;DHT22;10898;48.072;11.682;2023-10-31T06:54:41;9.20;95.20
21473;DHT22;10898;48.072;11.682;2023-10-31T06:56:42;9.30;95.10
21473;DHT22;10898;48.072;11.682;2023-10-31T06:58:44;9.20;95.00
21473;DHT22;10898;48.072;11.682;2023-10-31T07:00:46;9.20;94.70
21473;DHT22;10898;48.072;11.682;2023-10-31T07:02:48;9.20;95.10
21473;DHT22;10898;48.072;11.682;2023-10-31T07:04:50;9.20;95.30
21473;DHT22;10898;48.072;11.682;2023-10-31T07:06:52;9.20;95.50
21473;DHT22;10898;48.072;11.682;2023-10-31T07:08:58;9.20;95.10
21473;DHT22;10898;48.072;11.682;2023-10-31T07:11:02;9.20;95.00
21473;DHT22;10898;48.072;11.682;2023-10-31T07:13:04;9.20;94.10
21473;DHT22;10898;48.072;11.682;2023-10-31T07:15:06;9.20;94.30
21473;DHT22;10898;48.072;11.682;2023-10-31T07:17:08;9.20;94.40
21473;DHT22;10898;48.072;11.682;2023-10-31T07:19:10;9.20;94.30
21473;DHT22;10898;48.072;11.682;2023-10-31T07:21:12;9.20;93.80
21473;DHT22;10898;48.072;11.682;2023-10-31T07:23:14;9.20;94.10
21473;DHT22;10898;48.072;11.682;2023-10-31T07:25:16;9.20;93.90
21473;DHT22;10898;48.072;11.682;2023-10-31T07:27:18;9.20;94.10
21473;DHT22;10898;48.072;11.682;2023-10-31T07:29:20;9.20;94.00
21473;DHT22;10898;48.072;11.682;2023-10-31T07:31:22;9.20;94.50
21473;DHT22;10898;48.072;11.682;2023-10-31T07:33:23;9.20;95.40
21473;DHT22;10898;48.072;11.682;2023-10-31T07:35:25;9.20;95.20
21473;DHT22;10898;48.072;11.682;2023-10-31T07:37:27;9.30;94.50
21473;DHT22;10898;48.072;11.682;2023-10-31T07:39:29;9.20;94.40
21473;DHT22;10898;48.072;11.682;2023-10-31T07:41:31;9.30;94.50
21473;DHT22;10898;48.072;11.682;2023-10-31T07:43:33;9.40;92.90
21473;DHT22;10898;48.072;11.682;2023-10-31T07:45:39;9.30;93.20
21473;DHT22;10898;48.072;11.682;2023-10-31T07:47:41;9.40;93.30
21473;DHT22;10898;48.072;11.682;2023-10-31T07:49:42;9.40;93.30
21473;DHT22;10898;48.072;11.682;2023-10-31T07:51:44;9.40;93.20
21473;DHT22;10898;48.072;11.682;2023-10-31T07:53:46;9.40;93.40
21473;DHT22;10898;48.072;11.682;2023-10-31T07:55:49;9.40;93.20
21473;DHT22;10898;48.072;11.682;2023-10-31T07:57:51;9.40;91.60
21473;DHT22;10898;48.072;11.682;2023-10-31T07:59:52;9.40;91.60
21473;DHT22;10898;48.072;11.682;2023-10-31T08:01:54;9.40;91.90
21473;DHT22;10898;48.072;11.682;2023-10-31T08:03:56;9.30;91.80
21473;DHT22;10898;48.072;11.682;2023-10-31T08:05:58;9.30;92.00
21473;DHT22;10898;48.072;11.682;2023-10-31T08:08:01;9.30;91.40
21473;DHT22;10898;48.072;11.682;2023-10-31T08:10:04;9.30;92.20
21473;DHT22;10898;48.072;11.682;2023-10-31T08:12:06;9.40;93.00
21473;DHT22;10898;48.072;11.682;2023-10-31T08:14:08;9.40;92.70
21473;DHT22;10898;48.072;11.682;2023-10-31T08:16:10;9.40;92.10
21473;DHT22;10898;48.072;11.682;2023-10-31T08:18:18;9.50;90.40
21473;DHT22;10898;48.072;11.682;2023-10-31T08:20:19;9.50;90.00
21473;DHT22;10898;48.072;11.682;2023-10-31T08:22:21;9.50;90.60
21473;DHT22;10898;48.072;11.682;2023-10-31T08:24:24;9.50;89.60
21473;DHT22;10898;48.072;11.682;2023-10-31T08:26:25;9.50;89.60
21473;DHT22;10898;48.072;11.682;2023-10-31T08:28:27;9.50;89.10
21473;DHT22;10898;48.072;11.682;2023-10-31T08:30:30;9.50;90.30
21473;DHT22;10898;48.072;11.682;2023-10-31T08:32:32;9.50;89.80
21473;DHT22;10898;48.072;11.682;2023-10-31T08:34:34;9.50;89.70
21473;DHT22;10898;48.072;11.682;2023-10-31T08:36:36;9.50;89.00
21473;DHT22;10898;48.072;11.682;2023-10-31T08:38:38;9.50;89.50
21473;DHT22;10898;48.072;11.682;2023-10-31T08:40:41;9.50;88.20
21473;DHT22;10898;48.072;11.682;2023-10-31T08:42:43;9.50;88.30
21473;DHT22;10898;48.072;11.682;2023-10-31T08:44:45;9.50;88.20
21473;DHT22;10898;48.072;11.682;2023-10-31T08:46:53;9.50;88.70
21473;DHT22;10898;48.072;11.682;2023-10-31T08:48:55;9.50;89.40
21473;DHT22;10898;48.072;11.682;2023-10-31T08:50:57;9.60;88.30
21473;DHT22;10898;48.072;11.682;2023-10-31T08:52:59;9.60;87.70
21473;DHT22;10898;48.072;11.682;2023-10-31T08:55:03;9.60;87.90
21473;DHT22;10898;48.072;11.682;2023-10-31T08:57:05;9.50;88.00
21473;DHT22;10898;48.072;11.682;2023-10-31T08:59:07;9.50;87.60
21473;DHT22;10898;48.072;11.682;2023-10-31T09:01:10;9.50;87.70
21473;DHT22;10898;48.072;11.682;2023-10-31T09:03:12;9.50;88.50
21473;DHT22;10898;48.072;11.682;2023-10-31T09:05:14;9.50;88.40
21473;DHT22;10898;48.072;11.682;2023-10-31T09:07:16;9.50;88.90
21473;DHT22;10898;48.072;11.682;2023-10-31T09:09:18;9.50;89.00
21473;DHT22;10898;48.072;11.682;2023-10-31T09:11:19;9.50;88.30
21473;DHT22;10898;48.072;11.682;2023-10-31T09:13:21;9.50;88.20
21473;DHT22;10898;48.072;11.682;2023-10-31T09:15:23;9.50;88.00
21473;DHT22;10898;48.072;11.682;2023-10-31T09:17:25;9.40;89.00
21473;DHT22;10898;48.072;11.682;2023-10-31T09:19:27;9.50;89.80
21473;DHT22;10898;48.072;11.682;2023-10-31T09:21:30;9.50;88.60
21473;DHT22;10898;48.072;11.682;2023-10-31T09:23:31;9.50;88.40
21473;DHT22;10898;48.072;11.682;2023-10-31T09:25:34;9.50;88.30
21473;DHT22;10898;48.072;11.682;2023-10-31T09:27:37;9.50;89.30
21473;DHT22;10898;48.072;11.682;2023-10-31T09:29:38;9.60;88.30
21473;DHT22;10898;48.072;11.682;2023-10-31T09:31:40;9.60;88.00
21473;DHT22;10898;48.072;11.682;2023-10-31T09:33:42;9.60;88.30
21473;DHT22;10898;48.072;11.682;2023-10-31T09:35:44;9.60;88.20
21473;DHT22;10898;48.072;11.682;2023-10-31T09:37:46;9.60;87.50
21473;DHT22;10898;48.072;11.682;2023-10-31T09:39:50;9.60;87.40
21473;DHT22;10898;48.072;11.682;2023-10-31T09:41:52;9.60;87.70
21473;DHT22;10898;48.072;11.682;2023-10-31T09:43:55;9.70;87.70
21473;DHT22;10898;48.072;11.682;2023-10-31T09:45:58;9.70;87.00
21473;DHT22;10898;48.072;11.682;2023-10-31T09:48:02;9.60;87.70
21473;DHT22;10898;48.072;11.682;2023-10-31T09:50:04;9.60;87.90
21473;DHT22;10898;48.072;11.682;2023-10-31T09:52:07;9.60;87.80
21473;DHT22;10898;48.072;11.682;2023-10-31T09:54:09;9.60;87.60
21473;DHT22;10898;48.072;11.682;2023-10-31T09:56:12;9.60;88.00
21473;DHT22;10898;48.072;11.682;2023-10-31T09:58:14;9.60;88.10
21473;DHT22;10898;48.072;11.682;2023-10-31T10:00:16;9.60;88.00
21473;DHT22;10898;48.072;11.682;2023-10-31T10:02:18;9.70;88.30
21473;DHT22;10898;48.072;11.682;2023-10-31T10:04:21;9.70;88.60
21473;DHT22;10898;48.072;11.682;2023-10-31T10:06:23;9.80;88.40
21473;DHT22;10898;48.072;11.682;2023-10-31T10:08:25;9.80;88.10
21473;DHT22;10898;48.072;11.682;2023-10-31T10:10:27;9.80;87.70
21473;DHT22;10898;48.072;11.682;2023-10-31T10:12:31;9.90;87.80
21473;DHT22;10898;48.072;11.682;2023-10-31T10:14:33;10.00;87.50
21473;DHT22;10898;48.072;11.682;2023-10-31T10:16:35;10.00;88.10
21473;DHT22;10898;48.072;11.682;2023-10-31T10:18:37;10.00;88.20
21473;DHT22;10898;48.072;11.682;2023-10-31T10:20:58;10.00;88.40
21473;DHT22;10898;48.072;11.682;2023-10-31T10:23:03;10.00;87.40
21473;DHT22;10898;48.072;11.682;2023-10-31T10:25:07;10.00;87.10
21473;DHT22;10898;48.072;11.682;2023-10-31T10:27:09;10.00;86.80
21473;DHT22;10898;48.072;11.682;2023-10-31T10:29:11;10.10;87.30
21473;DHT22;10898;48.072;11.682;2023-10-31T10:31:14;10.10;87.10
21473;DHT22;10898;48.072;11.682;2023-10-31T10:33:17;10.10;86.60
21473;DHT22;10898;48.072;11.682;2023-10-31T10:35:19;10.10;87.00
21473;DHT22;10898;48.072;11.682;2023-10-31T10:37:21;10.10;85.90
21473;DHT22;10898;48.072;11.682;2023-10-31T10:39:24;10.20;86.20
21473;DHT22;10898;48.072;11.682;2023-10-31T10:41:27;10.20;84.90
21473;DHT22;10898;48.072;11.682;2023-10-31T10:43:31;10.20;85.90
21473;DHT22;10898;48.072;11.682;2023-10-31T10:45:38;10.20;85.90
21473;DHT22;10898;48.072;11.682;2023-10-31T10:47:40;10.20;87.10
21473;DHT22;10898;48.072;11.682;2023-10-31T10:49:48;10.30;86.20
21473;DHT22;10898;48.072;11.682;2023-10-31T10:51:58;10.30;85.00
21473;DHT22;10898;48.072;11.682;2023-10-31T10:54:11;10.30;85.70
21473;DHT22;10898;48.072;11.682;2023-10-31T10:56:36;10.30;85.00
21473;DHT22;10898;48.072;11.682;2023-10-31T11:00:41;10.30;85.00
21473;DHT22;10898;48.072;11.682;2023-10-31T11:02:43;10.40;85.80
21473;DHT22;10898;48.072;11.682;2023-10-31T11:04:45;10.40;85.40
21473;DHT22;10898;48.072;11.682;2023-10-31T11:06:48;10.40;85.60
21473;DHT22;10898;48.072;11.682;2023-10-31T11:08:52;10.40;85.40
21473;DHT22;10898;48.072;11.682;2023-10-31T11:10:55;10.50;85.40
21473;DHT22;10898;48.072;11.682;2023-10-31T11:12:57;10.50;84.80
21473;DHT22;10898;48.072;11.682;2023-10-31T11:15:01;10.50;84.20
21473;DHT22;10898;48.072;11.682;2023-10-31T11:17:11;10.50;85.00
21473;DHT22;10898;48.072;11.682;2023-10-31T11:19:16;10.60;84.70
21473;DHT22;10898;48.072;11.682;2023-10-31T11:21:18;10.60;83.40
21473;DHT22;10898;48.072;11.682;2023-10-31T11:23:20;10.60;82.60
21473;DHT22;10898;48.072;11.682;2023-10-31T11:25:23;10.60;83.60
21473;DHT22;10898;48.072;11.682;2023-10-31T11:27:34;10.70;83.60
21473;DHT22;10898;48.072;11.682;2023-10-31T11:29:37;10.70;83.10
21473;DHT22;10898;48.072;11.682;2023-10-31T11:31:39;10.70;83.30
21473;DHT22;10898;48.072;11.682;2023-10-31T11:33:41;10.70;83.20
21473;DHT22;10898;48.072;11.682;2023-10-31T11:35:50;10.80;83.70
21473;DHT22;10898;48.072;11.682;2023-10-31T11:38:12;10.80;83.20
21473;DHT22;10898;48.072;11.682;2023-10-31T11:40:18;10.90;82.50
21473;DHT22;10898;48.072;11.682;2023-10-31T11:42:20;10.90;82.40
21473;DHT22;10898;48.072;11.682;2023-10-31T11:44:25;10.90;82.40
21473;DHT22;10898;48.072;11.682;2023-10-31T11:46:28;11.00;81.90
21473;DHT22;10898;48.072;11.682;2023-10-31T11:48:46;11.00;82.00
21473;DHT22;10898;48.072;11.682;2023-10-31T11:50:48;11.00;82.00
21473;DHT22;10898;48.072;11.682;2023-10-31T11:55:02;11.10;82.00
21473;DHT22;10898;48.072;11.682;2023-10-31T11:57:04;11.10;83.00
21473;DHT22;10898;48.072;11.682;2023-10-31T11:59:06;11.10;80.50
21473;DHT22;10898;48.072;11.682;2023-10-31T12:01:09;11.10;81.60
21473;DHT22;10898;48.072;11.682;2023-10-31T12:03:12;11.10;81.70
21473;DHT22;10898;48.072;11.682;2023-10-31T12:05:15;11.10;81.90
21473;DHT22;10898;48.072;11.682;2023-10-31T12:07:18;11.10;81.30
21473;DHT22;10898;48.072;11.682;2023-10-31T12:09:20;11.10;81.50
21473;DHT22;10898;48.072;11.682;2023-10-31T12:11:23;11.10;82.40
21473;DHT22;10898;48.072;11.682;2023-10-31T12:13:25;11.20;81.00
21473;DHT22;10898;48.072;11.682;2023-10-31T12:15:27;11.30;81.30
21473;DHT22;10898;48.072;11.682;2023-10-31T12:17:29;11.30;81.00
21473;DHT22;10898;48.072;11.682;2023-10-31T12:19:31;11.30;80.70
21473;DHT22;10898;48.072;11.682;2023-10-31T12:21:43;11.30;80.20
21473;DHT22;10898;48.072;11.682;2023-10-31T12:23:45;11.30;80.90
21473;DHT22;10898;48.072;11.682;2023-10-31T12:25:48;11.30;80.50
21473;DHT22;10898;48.072;11.682;2023-10-31T12:27:50;11.40;80.10
21473;DHT22;10898;48.072;11.682;2023-10-31T12:30:01;11.40;80.90
21473;DHT22;10898;48.072;11.682;2023-10-31T12:32:03;11.40;80.70
21473;DHT22;10898;48.072;11.682;2023-10-31T12:34:06;11.50;80.10
21473;DHT22;10898;48.072;11.682;2023-10-31T12:36:08;11.50;79.30
21473;DHT22;10898;48.072;11.682;2023-10-31T12:38:13;11.50;79.10
21473;DHT22;10898;48.072;11.682;2023-10-31T12:40:20;11.60;78.70
21473;DHT22;10898;48.072;11.682;2023-10-31T12:42:22;11.60;79.60
21473;DHT22;10898;48.072;11.682;2023-10-31T12:44:30;11.70;78.90
21473;DHT22;10898;48.072;11.682;2023-10-31T12:46:32;11.70;79.00
21473;DHT22;10898;48.072;11.682;2023-10-31T12:48:37;11.70;79.90
21473;DHT22;10898;48.072;11.682;2023-10-31T12:50:40;11.80;79.00
21473;DHT22;10898;48.072;11.682;2023-10-31T12:54:50;11.80;77.10
21473;DHT22;10898;48.072;11.682;2023-10-31T12:56:52;11.80;77.30
21473;DHT22;10898;48.072;11.682;2023-10-31T12:59:00;11.80;76.60